createdAt,value
2022-12-08T00:01:26.416Z,15.93
2022-12-08T00:03:55.390Z,15.00
2022-12-08T00:06:46.815Z,14.60
2022-12-08T00:09:22.033Z,16.05
2022-12-08T00:14:27.268Z,14.27
2022-12-08T00:16:55.463Z,14.55
2022-12-08T00:19:23.408Z,14.98
2022-12-08T00:21:51.449Z,14.07
2022-12-08T00:24:18.950Z,13.75
2022-12-08T00:26:47.087Z,14.00
2022-12-08T00:29:17.594Z,14.23
2022-12-08T00:31:45.325Z,14.73
2022-12-08T00:34:14.607Z,14.85
2022-12-08T00:36:42.177Z,13.70
2022-12-08T00:39:11.331Z,13.77
2022-12-08T00:41:57.654Z,13.77
2022-12-08T00:44:25.441Z,14.48
2022-12-08T00:46:53.157Z,13.70
2022-12-08T00:49:20.788Z,13.50
2022-12-08T00:51:49.496Z,14.77
2022-12-08T00:54:17.480Z,12.93
2022-12-08T00:56:44.902Z,13.38
2022-12-08T00:59:12.316Z,16.77
2022-12-08T01:01:40.120Z,16.62
2022-12-08T01:04:10.261Z,15.23
2022-12-08T01:06:39.199Z,14.75
2022-12-08T01:09:07.708Z,13.65
2022-12-08T01:11:35.610Z,12.48
2022-12-08T01:14:03.453Z,11.70
2022-12-08T01:16:33.508Z,10.82
2022-12-08T01:19:01.696Z,12.43
2022-12-08T01:21:29.152Z,11.65
2022-12-08T01:23:59.560Z,11.30
2022-12-08T01:26:26.912Z,13.15
2022-12-08T01:28:54.671Z,12.93
2022-12-08T01:31:22.632Z,12.27
2022-12-08T01:33:50.446Z,11.77
2022-12-08T01:36:23.521Z,11.65
2022-12-08T01:38:51.905Z,11.65
2022-12-08T01:41:22.032Z,11.55
2022-12-08T01:43:57.056Z,12.45
2022-12-08T01:46:25.875Z,12.48
2022-12-08T01:48:57.310Z,12.25
2022-12-08T01:51:28.378Z,11.10
2022-12-08T01:53:56.153Z,11.60
2022-12-08T01:56:32.915Z,12.57
2022-12-08T01:59:00.671Z,11.35
2022-12-08T02:01:28.086Z,12.48
2022-12-08T02:03:59.482Z,12.95
2022-12-08T02:06:28.990Z,12.20
2022-12-08T02:08:58.116Z,12.88
2022-12-08T02:11:25.536Z,14.00
2022-12-08T02:13:53.403Z,13.80
2022-12-08T02:16:35.889Z,13.62
2022-12-08T02:19:30.814Z,12.75
2022-12-08T02:22:18.057Z,13.62
2022-12-08T02:25:08.016Z,11.82
2022-12-08T02:27:54.061Z,13.18
2022-12-08T02:30:47.614Z,11.50
2022-12-08T02:33:34.152Z,11.88
2022-12-08T02:36:16.220Z,12.05
2022-12-08T02:39:08.677Z,12.23
2022-12-08T02:41:35.924Z,12.82
2022-12-08T02:44:18.793Z,11.93
2022-12-08T02:47:27.751Z,11.93
2022-12-08T02:49:56.258Z,12.88
2022-12-08T02:52:23.556Z,12.57
2022-12-08T02:54:54.182Z,12.90
2022-12-08T02:57:36.660Z,11.95
2022-12-08T03:00:08.725Z,11.38
2022-12-08T03:02:42.701Z,13.43
2022-12-08T03:05:51.769Z,11.40
2022-12-08T03:08:37.143Z,11.57
2022-12-08T03:11:20.309Z,11.48
2022-12-08T03:13:53.280Z,11.80
2022-12-08T03:16:23.503Z,11.57
2022-12-08T03:19:07.003Z,12.25
2022-12-08T03:21:35.261Z,10.43
2022-12-08T03:24:05.731Z,10.88
2022-12-08T03:27:03.677Z,11.20
2022-12-08T03:29:32.653Z,12.00
2022-12-08T03:32:06.895Z,10.85
2022-12-08T03:34:35.416Z,11.00
2022-12-08T03:37:02.813Z,9.60
2022-12-08T03:39:30.304Z,10.77
2022-12-08T03:41:57.981Z,9.50
2022-12-08T03:44:25.343Z,10.38
2022-12-08T03:46:52.725Z,10.00
2022-12-08T03:49:20.383Z,9.57
2022-12-08T03:51:47.764Z,10.93
2022-12-08T03:54:15.177Z,9.07
2022-12-08T03:56:42.854Z,9.52
2022-12-08T03:59:10.695Z,10.88
2022-12-08T04:01:38.083Z,12.48
2022-12-08T04:04:05.854Z,9.77
2022-12-08T04:06:33.447Z,8.43
2022-12-08T04:09:01.592Z,9.68
2022-12-08T04:11:29.252Z,9.45
2022-12-08T04:13:56.666Z,9.15
2022-12-08T04:16:25.310Z,9.63
2022-12-08T04:18:53.015Z,9.15
2022-12-08T04:21:20.737Z,9.52
2022-12-08T04:23:48.619Z,9.80
2022-12-08T04:26:16.565Z,9.90
2022-12-08T04:28:44.042Z,9.77
2022-12-08T04:31:11.500Z,9.75
2022-12-08T04:33:39.312Z,9.85
2022-12-08T04:36:07.391Z,10.13
2022-12-08T04:38:34.959Z,9.85
2022-12-08T04:41:02.691Z,9.93
2022-12-08T04:43:30.247Z,9.38
2022-12-08T04:45:57.599Z,9.32
2022-12-08T04:48:25.678Z,9.95
2022-12-08T04:50:53.059Z,10.57
2022-12-08T04:53:21.302Z,11.30
2022-12-08T04:55:49.754Z,11.40
2022-12-08T04:58:18.875Z,11.68
2022-12-08T05:00:47.433Z,11.05
2022-12-08T05:03:15.585Z,10.63
2022-12-08T05:05:43.535Z,10.95
2022-12-08T05:08:11.261Z,10.80
2022-12-08T05:10:39.327Z,10.05
2022-12-08T05:13:06.821Z,12.70
2022-12-08T05:15:34.195Z,13.68
2022-12-08T05:18:01.868Z,13.90
2022-12-08T05:20:29.239Z,14.70
2022-12-08T05:22:56.627Z,13.25
2022-12-08T05:25:24.374Z,13.82
2022-12-08T05:27:55.272Z,14.60
2022-12-08T05:30:29.758Z,13.70
2022-12-08T05:32:57.513Z,14.48
2022-12-08T05:35:24.877Z,13.25
2022-12-08T05:37:53.976Z,14.18
2022-12-08T05:40:21.652Z,13.43
2022-12-08T05:42:49.053Z,13.68
2022-12-08T05:45:16.747Z,12.55
2022-12-08T05:47:44.455Z,13.07
2022-12-08T05:50:11.834Z,14.18
2022-12-08T05:52:39.478Z,15.27
2022-12-08T05:55:07.044Z,14.52
2022-12-08T05:57:34.402Z,15.80
2022-12-08T06:00:02.747Z,15.05
2022-12-08T06:02:39.637Z,15.40
2022-12-08T06:05:07.926Z,16.10
2022-12-08T06:07:35.451Z,15.07
2022-12-08T06:10:03.666Z,16.20
2022-12-08T06:12:31.858Z,15.02
2022-12-08T06:14:59.225Z,15.02
2022-12-08T06:17:26.581Z,14.23
2022-12-08T06:19:54.239Z,12.00
2022-12-08T06:22:21.831Z,12.02
2022-12-08T06:24:49.303Z,10.98
2022-12-08T06:27:17.177Z,12.65
2022-12-08T06:29:44.579Z,12.15
2022-12-08T06:32:12.073Z,12.32
2022-12-08T06:34:39.785Z,11.65
2022-12-08T06:37:07.191Z,12.10
2022-12-08T06:39:34.575Z,11.52
2022-12-08T06:42:20.879Z,12.75
2022-12-08T06:44:48.666Z,11.57
2022-12-08T06:47:16.463Z,11.38
2022-12-08T06:49:43.888Z,12.45
2022-12-08T06:52:11.302Z,12.07
2022-12-08T06:54:39.112Z,13.07
2022-12-08T06:57:06.736Z,12.88
2022-12-08T06:59:34.108Z,13.05
2022-12-08T07:02:01.859Z,12.82
2022-12-08T07:04:29.406Z,14.23
2022-12-08T07:06:56.796Z,15.57
2022-12-08T07:09:24.751Z,13.88
2022-12-08T07:11:52.341Z,13.52
2022-12-08T07:14:23.661Z,14.05
2022-12-08T07:16:52.301Z,15.75
2022-12-08T07:19:20.076Z,14.95
2022-12-08T07:21:47.693Z,16.00
2022-12-08T07:24:15.366Z,15.73
2022-12-08T07:26:42.826Z,15.60
2022-12-08T07:29:10.812Z,16.48
2022-12-08T07:31:38.549Z,16.45
2022-12-08T07:34:05.966Z,18.23
2022-12-08T07:36:33.327Z,20.40
2022-12-08T07:39:01.068Z,22.05
2022-12-08T07:41:28.433Z,19.65
2022-12-08T07:43:56.618Z,19.83
2022-12-08T07:46:25.473Z,20.33
2022-12-08T07:48:54.156Z,21.52
2022-12-08T07:51:21.729Z,22.35
2022-12-08T07:53:54.067Z,24.65
2022-12-08T07:56:22.867Z,22.87
2022-12-08T07:58:50.767Z,24.77
2022-12-08T08:01:32.377Z,25.65
2022-12-08T08:04:02.228Z,24.12
2022-12-08T08:06:30.208Z,23.75
2022-12-08T08:08:57.668Z,23.98
2022-12-08T08:11:25.384Z,24.37
2022-12-08T08:13:52.868Z,25.62
2022-12-08T08:16:21.053Z,25.83
2022-12-08T08:18:50.491Z,25.75
2022-12-08T08:24:07.166Z,25.27
2022-12-08T08:26:34.744Z,26.05
2022-12-08T08:29:02.097Z,25.73
2022-12-08T08:31:29.851Z,24.90
2022-12-08T08:33:57.377Z,25.33
2022-12-08T08:36:25.064Z,26.20
2022-12-08T08:38:52.838Z,25.88
2022-12-08T08:41:20.512Z,26.83
2022-12-08T08:43:48.075Z,26.67
2022-12-08T08:46:16.092Z,26.23
2022-12-08T08:48:43.558Z,25.70
2022-12-08T08:51:12.728Z,23.62
2022-12-08T08:53:40.900Z,24.23
2022-12-08T08:56:13.288Z,24.63
2022-12-08T08:58:41.456Z,23.52
2022-12-08T09:01:08.885Z,23.70
2022-12-08T09:03:36.287Z,24.37
2022-12-08T09:06:04.081Z,23.35
2022-12-08T09:08:31.621Z,22.70
2022-12-08T09:10:59.237Z,22.37
2022-12-08T09:13:27.317Z,23.45
2022-12-08T09:15:54.745Z,23.70
2022-12-08T09:18:22.171Z,22.98
2022-12-08T09:20:49.797Z,23.77
2022-12-08T09:23:17.533Z,23.17
2022-12-08T09:25:45.687Z,22.42
2022-12-08T09:28:14.244Z,20.62
2022-12-08T09:31:00.645Z,18.70
2022-12-08T09:33:28.412Z,19.98
2022-12-08T09:35:55.822Z,18.58
2022-12-08T09:38:23.363Z,20.15
2022-12-08T09:40:53.352Z,19.37
2022-12-08T09:43:39.223Z,20.83
2022-12-08T09:46:11.963Z,19.48
2022-12-08T09:48:43.082Z,19.30
2022-12-08T09:51:11.633Z,20.52
2022-12-08T09:53:45.554Z,18.70
2022-12-08T09:59:08.573Z,16.50
2022-12-08T10:01:41.974Z,16.58
2022-12-08T10:04:34.287Z,16.55
2022-12-08T10:07:30.894Z,15.15
2022-12-08T10:10:17.496Z,14.75
2022-12-08T10:13:00.227Z,15.85
2022-12-08T10:15:40.233Z,13.27
2022-12-08T10:18:15.381Z,15.57
2022-12-08T10:20:46.367Z,14.55
2022-12-08T10:23:16.282Z,14.18
2022-12-08T10:25:47.924Z,14.80
2022-12-08T10:28:15.581Z,14.25
2022-12-08T10:30:43.336Z,13.65
2022-12-08T10:33:18.998Z,13.73
2022-12-08T10:35:52.458Z,13.38
2022-12-08T10:38:27.567Z,13.13
2022-12-08T10:41:01.863Z,13.77
2022-12-08T10:43:30.151Z,13.25
2022-12-08T10:46:09.208Z,11.63
2022-12-08T10:48:37.024Z,12.35
2022-12-08T10:51:05.723Z,12.80
2022-12-08T10:53:34.395Z,12.30
2022-12-08T10:56:01.948Z,12.98
2022-12-08T10:58:36.129Z,12.40
2022-12-08T11:01:06.868Z,12.88
2022-12-08T11:03:37.937Z,13.23
2022-12-08T11:06:24.188Z,11.85
2022-12-08T11:08:59.553Z,13.25
2022-12-08T11:11:47.449Z,13.05
2022-12-08T11:14:33.242Z,11.75
2022-12-08T11:17:09.001Z,12.73
2022-12-08T11:19:41.063Z,12.15
2022-12-08T11:22:32.593Z,12.55
2022-12-08T11:25:03.458Z,11.88
2022-12-08T11:27:32.973Z,13.05
2022-12-08T11:30:01.397Z,11.48
2022-12-08T11:32:28.890Z,12.18
2022-12-08T11:35:00.910Z,12.88
2022-12-08T11:37:34.668Z,12.20
2022-12-08T11:40:07.788Z,12.82
2022-12-08T11:42:40.637Z,11.60
2022-12-08T11:45:14.093Z,11.82
2022-12-08T11:47:54.131Z,13.13
2022-12-08T11:50:34.163Z,11.57
2022-12-08T11:53:01.763Z,11.38
2022-12-08T11:55:37.210Z,10.70
2022-12-08T11:58:38.882Z,10.18
2022-12-08T12:01:17.209Z,10.52
2022-12-08T12:03:54.000Z,10.77
2022-12-08T12:06:54.773Z,12.13
2022-12-08T12:09:34.741Z,12.07
2022-12-08T12:12:16.760Z,12.32
2022-12-08T12:15:02.858Z,11.88
2022-12-08T12:17:36.564Z,11.80
2022-12-08T12:20:12.434Z,10.80
2022-12-08T12:22:40.215Z,11.00
2022-12-08T12:25:17.981Z,11.63
2022-12-08T12:27:46.006Z,12.27
2022-12-08T12:30:34.471Z,11.43
2022-12-08T12:33:02.324Z,11.95
2022-12-08T12:35:29.961Z,11.50
2022-12-08T12:38:04.797Z,11.95
2022-12-08T12:40:39.895Z,11.30
2022-12-08T12:45:43.865Z,11.57
2022-12-08T12:48:22.200Z,11.43
2022-12-08T12:50:51.126Z,10.60
2022-12-08T12:53:19.028Z,17.00
2022-12-08T12:55:46.849Z,13.00
2022-12-08T12:58:23.710Z,18.60
2022-12-08T13:01:14.099Z,13.20
2022-12-08T13:03:48.570Z,13.10
2022-12-08T13:06:23.483Z,13.38
2022-12-08T13:08:53.529Z,11.90
2022-12-08T13:11:21.607Z,11.48
2022-12-08T13:14:01.396Z,11.48
2022-12-08T13:16:35.047Z,11.60
2022-12-08T13:19:14.060Z,11.93
2022-12-08T13:21:42.263Z,11.12
2022-12-08T13:24:25.266Z,10.40
2022-12-08T13:27:16.336Z,10.75
2022-12-08T13:29:44.140Z,11.65
2022-12-08T13:32:11.829Z,11.68
2022-12-08T13:34:50.700Z,12.15
2022-12-08T13:37:56.915Z,12.35
2022-12-08T13:40:26.234Z,11.52
2022-12-08T13:43:06.599Z,11.85
2022-12-08T13:57:30.676Z,11.50
2022-12-08T14:00:16.034Z,11.07
2022-12-08T14:02:48.254Z,11.48
2022-12-08T14:05:20.467Z,10.75
2022-12-08T14:07:51.766Z,12.05
2022-12-08T14:10:22.574Z,11.02
2022-12-08T14:12:56.364Z,11.77
2022-12-08T14:15:25.387Z,12.40
2022-12-08T14:17:57.335Z,12.45
2022-12-08T14:20:30.177Z,17.33
2022-12-08T14:22:59.442Z,14.18
2022-12-08T14:25:28.228Z,15.20
2022-12-08T14:27:59.926Z,22.15
2022-12-08T14:30:32.835Z,26.55
2022-12-08T14:33:01.535Z,21.42
2022-12-08T14:35:37.528Z,20.95
2022-12-08T14:38:09.901Z,18.65
2022-12-08T14:40:39.847Z,23.02
2022-12-08T14:43:10.377Z,22.30
2022-12-08T14:45:41.309Z,21.55
2022-12-08T14:48:26.848Z,26.45
2022-12-08T14:51:04.821Z,16.50
2022-12-08T14:53:39.742Z,14.82
2022-12-08T14:56:26.082Z,13.02
2022-12-08T14:59:13.199Z,12.77
2022-12-08T15:01:42.300Z,13.95
2022-12-08T15:04:12.672Z,11.05
2022-12-08T15:06:57.953Z,10.48
2022-12-08T15:09:38.661Z,12.45
2022-12-08T15:12:07.081Z,10.80
2022-12-08T15:14:37.142Z,12.35
2022-12-08T15:17:23.917Z,12.02
2022-12-08T15:19:59.105Z,12.05
2022-12-08T15:24:57.569Z,12.77
2022-12-08T15:27:25.690Z,13.45
2022-12-08T15:29:53.631Z,13.95
2022-12-08T15:32:23.125Z,15.50
2022-12-08T15:34:50.568Z,14.80
2022-12-08T15:37:28.046Z,15.60
2022-12-08T15:39:55.774Z,15.25
2022-12-08T15:42:23.177Z,15.07
2022-12-08T15:44:50.589Z,14.68
2022-12-08T15:47:20.832Z,15.65
2022-12-08T15:49:49.728Z,16.15
2022-12-08T15:52:20.283Z,15.45
2022-12-08T15:54:49.102Z,15.82
2022-12-08T15:58:17.128Z,14.77
2022-12-08T16:00:51.235Z,14.00
2022-12-08T16:03:59.734Z,15.00
2022-12-08T16:07:26.831Z,14.35
2022-12-08T16:09:13.117Z,15.13
2022-12-08T16:12:09.105Z,14.77
2022-12-08T16:17:28.270Z,13.20
2022-12-08T16:19:56.166Z,14.00
2022-12-08T16:25:19.936Z,14.23
2022-12-08T16:28:29.518Z,13.00
2022-12-08T16:30:38.994Z,14.40
2022-12-08T16:33:06.905Z,13.95
2022-12-08T16:35:34.836Z,14.02
2022-12-08T16:38:05.328Z,13.98
2022-12-08T16:40:32.838Z,14.13
2022-12-08T16:43:00.512Z,13.20
2022-12-08T16:45:30.076Z,14.23
2022-12-08T16:48:00.155Z,16.20
2022-12-08T16:50:33.533Z,15.20
2022-12-08T16:53:06.987Z,15.75
2022-12-08T16:55:35.758Z,16.33
2022-12-08T16:58:03.735Z,12.95
2022-12-08T17:00:37.369Z,15.07
2022-12-08T17:03:08.469Z,12.90
2022-12-08T17:05:36.153Z,12.18
2022-12-08T17:08:03.700Z,12.50
2022-12-08T17:10:34.430Z,13.98
2022-12-08T17:13:02.516Z,13.27
2022-12-08T17:15:30.014Z,12.07
2022-12-08T17:17:58.104Z,11.25
2022-12-08T17:20:27.421Z,10.75
2022-12-08T17:22:57.483Z,10.77
2022-12-08T17:25:26.661Z,11.93
2022-12-08T17:27:54.881Z,11.20
2022-12-08T17:30:22.435Z,10.85
2022-12-08T17:32:52.714Z,11.50
2022-12-08T17:35:20.621Z,12.32
2022-12-08T17:37:48.605Z,14.15
2022-12-08T17:40:16.913Z,15.05
2022-12-08T17:42:45.201Z,12.98
2022-12-08T17:45:12.739Z,14.20
2022-12-08T17:47:40.580Z,14.70
2022-12-08T17:50:08.938Z,17.77
2022-12-08T17:52:37.633Z,14.40
2022-12-08T17:55:07.384Z,15.20
2022-12-08T17:57:35.317Z,12.90
2022-12-08T18:00:04.015Z,13.32
2022-12-08T18:02:39.586Z,13.77
2022-12-08T18:05:08.815Z,13.73
2022-12-08T18:07:37.818Z,13.02
2022-12-08T18:10:08.111Z,13.27
2022-12-08T18:12:36.430Z,13.70
2022-12-08T18:15:07.424Z,14.43
2022-12-08T18:17:35.407Z,14.10
2022-12-08T18:20:04.279Z,13.35
2022-12-08T18:22:32.612Z,14.57
2022-12-08T18:25:00.175Z,13.48
2022-12-08T18:27:28.746Z,13.35
2022-12-08T18:29:56.978Z,12.45
2022-12-08T18:32:24.825Z,13.73
2022-12-08T18:34:54.334Z,14.38
2022-12-08T18:37:22.392Z,12.52
2022-12-08T18:39:51.885Z,12.77
2022-12-08T18:42:23.416Z,13.25
2022-12-08T18:44:53.704Z,12.80
2022-12-08T18:47:23.429Z,12.68
2022-12-08T18:49:51.812Z,12.45
2022-12-08T18:52:28.138Z,13.05
2022-12-08T18:55:07.807Z,12.77
2022-12-08T18:57:38.898Z,12.57
2022-12-08T19:00:10.163Z,12.45
2022-12-08T19:02:39.072Z,13.45
2022-12-08T19:05:08.570Z,14.13
2022-12-08T19:07:40.105Z,13.00
2022-12-08T19:10:10.066Z,12.32
2022-12-08T19:12:38.694Z,12.50
2022-12-08T19:15:07.532Z,11.77
2022-12-08T19:17:37.191Z,14.40
2022-12-08T19:20:07.487Z,13.32
2022-12-08T19:22:35.746Z,15.50
2022-12-08T19:25:05.092Z,45.00
2022-12-08T19:27:34.642Z,36.20
2022-12-08T19:30:03.720Z,27.65
2022-12-08T19:32:32.180Z,14.63
2022-12-08T19:35:00.752Z,12.43
2022-12-08T19:37:29.914Z,13.15
2022-12-08T19:40:17.065Z,12.32
2022-12-08T19:43:05.918Z,12.75
2022-12-08T19:45:36.093Z,14.13
2022-12-08T19:48:05.729Z,12.60
2022-12-08T19:50:36.811Z,13.73
2022-12-08T19:53:17.349Z,12.60
2022-12-08T19:55:45.795Z,11.75
2022-12-08T19:58:16.680Z,12.23
2022-12-08T20:00:47.188Z,11.95
2022-12-08T20:03:20.544Z,12.55
2022-12-08T20:05:50.992Z,11.10
2022-12-08T20:08:20.043Z,12.23
2022-12-08T20:10:48.728Z,12.68
2022-12-08T20:13:36.381Z,12.37
2022-12-08T20:16:05.724Z,12.10
2022-12-08T20:18:38.626Z,12.20
2022-12-08T20:21:07.280Z,12.73
2022-12-08T20:23:38.503Z,12.37
2022-12-08T20:26:10.589Z,12.07
2022-12-08T20:28:39.712Z,11.23
2022-12-08T20:31:09.057Z,12.80
2022-12-08T20:33:37.207Z,11.70
2022-12-08T20:36:07.822Z,11.68
2022-12-08T20:38:37.111Z,13.82
2022-12-08T20:41:10.796Z,12.35
2022-12-08T20:43:39.962Z,12.43
2022-12-08T20:46:11.302Z,13.13
2022-12-08T20:48:40.678Z,13.15
2022-12-08T20:51:13.698Z,12.75
2022-12-08T20:53:42.128Z,13.43
2022-12-08T20:56:17.885Z,13.05
2022-12-08T20:58:46.410Z,14.18
2022-12-08T21:01:18.294Z,14.30
2022-12-08T21:03:47.627Z,15.18
2022-12-08T21:06:16.412Z,14.23
2022-12-08T21:08:43.947Z,13.45
2022-12-08T21:11:12.834Z,13.98
2022-12-08T21:13:40.769Z,13.85
2022-12-08T21:16:14.334Z,14.57
2022-12-08T21:18:42.300Z,15.07
2022-12-08T21:21:14.394Z,14.30
2022-12-08T21:23:43.287Z,15.45
2022-12-08T21:26:23.274Z,15.20
2022-12-08T21:28:51.230Z,15.55
2022-12-08T21:31:20.222Z,13.88
2022-12-08T21:33:48.537Z,14.25
2022-12-08T21:36:20.055Z,15.13
2022-12-08T21:38:47.987Z,15.55
2022-12-08T21:41:39.128Z,15.15
2022-12-08T21:44:09.576Z,14.48
2022-12-08T21:46:37.678Z,16.73
2022-12-08T21:49:05.405Z,15.43
2022-12-08T21:51:35.100Z,16.92
2022-12-08T21:54:03.037Z,17.15
2022-12-08T21:56:30.482Z,15.77
2022-12-08T21:58:58.033Z,17.75
2022-12-08T22:01:25.810Z,16.50
2022-12-08T22:03:54.339Z,15.57
2022-12-08T22:06:22.100Z,16.27
2022-12-08T22:08:49.649Z,16.62
2022-12-08T22:11:18.036Z,16.35
2022-12-08T22:13:45.437Z,15.55
2022-12-08T22:16:14.989Z,16.45
2022-12-08T22:18:42.858Z,17.67
2022-12-08T22:21:11.786Z,18.65
2022-12-08T22:23:39.296Z,17.73
2022-12-08T22:26:08.361Z,17.58
2022-12-08T22:28:39.023Z,17.83
2022-12-08T22:31:16.790Z,17.15
2022-12-08T22:33:44.763Z,18.40
2022-12-08T22:36:21.743Z,17.35
2022-12-08T22:38:49.919Z,17.37
2022-12-08T22:41:18.452Z,17.65
2022-12-08T22:43:47.004Z,17.27
2022-12-08T22:46:23.371Z,18.20
2022-12-08T22:48:51.860Z,17.67
2022-12-08T22:51:19.471Z,18.42
2022-12-08T22:53:47.495Z,17.83
2022-12-08T22:56:18.117Z,18.67
2022-12-08T22:58:45.775Z,18.08
2022-12-08T23:01:29.279Z,19.73
2022-12-08T23:03:57.773Z,18.37
2022-12-08T23:06:26.500Z,18.85
2022-12-08T23:08:54.359Z,18.17
2022-12-08T23:11:24.750Z,18.35
2022-12-08T23:13:52.254Z,19.08
2022-12-08T23:16:19.730Z,17.70
2022-12-08T23:18:47.842Z,17.92
2022-12-08T23:21:17.805Z,17.58
2022-12-08T23:23:45.646Z,18.60
2022-12-08T23:26:27.620Z,17.50
2022-12-08T23:28:56.379Z,19.27
2022-12-08T23:31:24.859Z,19.20
2022-12-08T23:33:52.959Z,19.30
2022-12-08T23:36:21.678Z,19.08
2022-12-08T23:38:49.541Z,19.42
2022-12-08T23:41:17.307Z,19.25
2022-12-08T23:43:46.398Z,21.87
2022-12-08T23:46:15.824Z,19.00
2022-12-08T23:48:43.734Z,20.90
2022-12-08T23:51:12.124Z,21.83
2022-12-08T23:53:40.164Z,21.50
2022-12-08T23:56:09.858Z,19.98
2022-12-08T23:58:37.764Z,20.73
